createdAt,value
2023-06-08T00:01:36.548Z,12.60
2023-06-08T00:04:31.540Z,6.97
2023-06-08T00:07:22.964Z,11.02
2023-06-08T00:10:12.368Z,7.47
2023-06-08T00:13:01.616Z,8.55
2023-06-08T00:15:51.769Z,12.65
2023-06-08T00:18:40.519Z,6.70
2023-06-08T00:21:30.510Z,6.45
2023-06-08T00:24:20.729Z,6.97
2023-06-08T00:27:11.916Z,7.60
2023-06-08T00:30:00.601Z,12.00
2023-06-08T00:32:50.781Z,5.88
2023-06-08T00:35:39.538Z,8.85
2023-06-08T00:38:28.239Z,9.75
2023-06-08T00:41:21.882Z,6.35
2023-06-08T00:44:11.527Z,6.68
2023-06-08T00:47:02.971Z,13.55
2023-06-08T00:49:53.621Z,7.90
2023-06-08T00:52:43.025Z,9.77
2023-06-08T00:55:34.793Z,6.40
2023-06-08T00:58:23.693Z,10.38
2023-06-08T01:01:18.752Z,8.65
2023-06-08T01:04:12.344Z,7.22
2023-06-08T01:07:15.634Z,9.60
2023-06-08T01:10:11.543Z,7.38
2023-06-08T01:13:06.271Z,8.75
2023-06-08T01:16:02.820Z,7.88
2023-06-08T01:18:54.521Z,7.05
2023-06-08T01:21:58.771Z,7.68
2023-06-08T01:24:51.322Z,10.00
2023-06-08T01:27:40.119Z,8.27
2023-06-08T01:30:29.196Z,7.68
2023-06-08T01:33:21.253Z,7.75
2023-06-08T01:36:18.462Z,10.18
2023-06-08T01:39:12.716Z,6.55
2023-06-08T01:42:05.016Z,6.93
2023-06-08T01:45:00.260Z,7.00
2023-06-08T01:47:53.681Z,8.77
2023-06-08T01:50:43.980Z,8.57
2023-06-08T01:53:33.049Z,7.70
2023-06-08T01:56:22.050Z,6.72
2023-06-08T01:59:12.132Z,6.53
2023-06-08T02:02:01.088Z,6.90
2023-06-08T02:04:49.799Z,9.77
2023-06-08T02:07:38.883Z,12.40
2023-06-08T02:10:27.688Z,10.27
2023-06-08T02:13:17.056Z,8.40
2023-06-08T02:16:07.320Z,6.80
2023-06-08T02:18:55.936Z,11.25
2023-06-08T02:21:44.784Z,6.80
2023-06-08T02:24:33.523Z,10.18
2023-06-08T02:27:22.514Z,7.63
2023-06-08T02:30:12.865Z,6.75
2023-06-08T02:33:02.981Z,13.30
2023-06-08T02:35:52.163Z,9.13
2023-06-08T02:38:40.955Z,8.73
2023-06-08T02:41:29.596Z,6.85
2023-06-08T02:44:18.341Z,10.43
2023-06-08T02:47:07.201Z,8.02
2023-06-08T02:49:57.331Z,10.00
2023-06-08T02:52:46.319Z,9.50
2023-06-08T02:55:36.033Z,8.70
2023-06-08T02:58:24.845Z,8.07
2023-06-08T03:01:21.566Z,10.30
2023-06-08T03:04:14.040Z,6.30
2023-06-08T03:07:04.341Z,7.40
2023-06-08T03:09:53.027Z,8.70
2023-06-08T03:12:41.750Z,9.05
2023-06-08T03:15:30.837Z,8.55
2023-06-08T03:18:19.468Z,11.68
2023-06-08T03:21:08.822Z,6.90
2023-06-08T03:23:59.138Z,10.98
2023-06-08T03:26:47.845Z,12.07
2023-06-08T03:29:36.580Z,8.30
2023-06-08T03:32:25.363Z,8.07
2023-06-08T03:35:14.099Z,10.95
2023-06-08T03:38:02.752Z,8.77
2023-06-08T03:40:52.788Z,9.20
2023-06-08T03:43:41.662Z,7.20
2023-06-08T03:46:30.764Z,9.27
2023-06-08T03:49:19.436Z,12.02
2023-06-08T03:52:08.585Z,10.07
2023-06-08T03:54:57.331Z,8.90
2023-06-08T03:57:47.633Z,10.07
2023-06-08T04:00:36.535Z,11.13
2023-06-08T04:03:26.132Z,12.88
2023-06-08T04:06:18.002Z,7.20
2023-06-08T04:09:07.930Z,11.40
2023-06-08T04:11:57.045Z,12.38
2023-06-08T04:14:47.453Z,8.60
2023-06-08T04:17:36.493Z,8.60
2023-06-08T04:20:26.012Z,7.50
2023-06-08T04:23:14.689Z,6.85
2023-06-08T04:26:04.439Z,7.63
2023-06-08T04:28:53.092Z,8.15
2023-06-08T04:31:43.261Z,7.38
2023-06-08T04:34:32.429Z,9.18
2023-06-08T04:37:21.158Z,11.73
2023-06-08T04:40:12.044Z,13.18
2023-06-08T04:43:00.980Z,9.27
2023-06-08T04:45:58.841Z,11.70
2023-06-08T04:48:49.791Z,9.90
2023-06-08T04:51:40.851Z,11.32
2023-06-08T04:54:33.125Z,11.15
2023-06-08T04:57:23.673Z,12.55
2023-06-08T05:00:15.679Z,11.23
2023-06-08T05:03:04.571Z,10.15
2023-06-08T05:05:55.394Z,9.68
2023-06-08T05:08:44.109Z,13.73
2023-06-08T05:11:32.893Z,7.88
2023-06-08T05:14:21.677Z,11.25
2023-06-08T05:17:10.723Z,9.32
2023-06-08T05:19:59.456Z,9.23
2023-06-08T05:22:49.447Z,11.23
2023-06-08T05:25:38.616Z,13.02
2023-06-08T05:28:27.610Z,14.30
2023-06-08T05:31:16.496Z,10.38
2023-06-08T05:34:05.565Z,9.90
2023-06-08T05:36:54.258Z,10.20
2023-06-08T05:39:44.302Z,14.75
2023-06-08T05:42:33.089Z,11.70
2023-06-08T05:45:21.835Z,16.88
2023-06-08T05:48:10.839Z,9.35
2023-06-08T05:50:59.702Z,9.90
2023-06-08T05:53:49.042Z,10.20
2023-06-08T05:56:39.150Z,14.18
2023-06-08T05:59:27.873Z,11.23
2023-06-08T06:02:16.487Z,9.60
2023-06-08T06:05:05.488Z,10.20
2023-06-08T06:07:54.210Z,8.63
2023-06-08T06:10:42.848Z,10.02
2023-06-08T06:13:32.977Z,9.18
2023-06-08T06:16:21.639Z,8.43
2023-06-08T06:19:10.380Z,9.93
2023-06-08T06:21:59.244Z,13.85
2023-06-08T06:24:47.996Z,11.73
2023-06-08T06:27:42.053Z,13.93
2023-06-08T06:30:38.881Z,8.98
2023-06-08T06:33:27.715Z,7.68
2023-06-08T06:36:16.377Z,15.05
2023-06-08T06:39:05.566Z,8.07
2023-06-08T06:41:54.201Z,7.00
2023-06-08T06:44:44.012Z,7.07
2023-06-08T06:47:34.110Z,8.55
2023-06-08T06:50:23.064Z,8.27
2023-06-08T06:53:12.179Z,6.55
2023-06-08T06:56:01.176Z,10.15
2023-06-08T06:58:49.941Z,8.70
2023-06-08T07:01:38.674Z,7.05
2023-06-08T07:04:28.762Z,12.98
2023-06-08T07:07:18.914Z,14.10
2023-06-08T07:10:08.485Z,13.40
2023-06-08T07:12:57.807Z,7.97
2023-06-08T07:15:53.025Z,10.65
2023-06-08T07:18:44.786Z,20.10
2023-06-08T07:21:41.323Z,11.50
2023-06-08T07:25:02.215Z,12.48
2023-06-08T07:27:42.080Z,12.88
2023-06-08T07:30:32.795Z,10.25
2023-06-08T07:33:21.543Z,10.60
2023-06-08T07:36:10.200Z,11.27
2023-06-08T07:39:00.180Z,11.00
2023-06-08T07:41:48.859Z,11.75
2023-06-08T07:44:37.615Z,10.55
2023-06-08T07:47:26.316Z,8.90
2023-06-08T07:50:15.049Z,7.97
2023-06-08T07:53:03.850Z,9.65
2023-06-08T07:55:54.007Z,9.50
2023-06-08T07:58:42.680Z,7.80
2023-06-08T08:01:31.653Z,8.95
2023-06-08T08:04:20.848Z,8.35
2023-06-08T08:07:09.692Z,8.25
2023-06-08T08:09:58.397Z,7.80
2023-06-08T08:12:48.391Z,8.82
2023-06-08T08:15:37.584Z,7.30
2023-06-08T08:18:26.372Z,9.93
2023-06-08T08:21:14.990Z,7.97
2023-06-08T08:24:03.991Z,7.40
2023-06-08T08:26:56.923Z,7.50
2023-06-08T08:29:46.989Z,9.20
2023-06-08T08:32:36.008Z,7.63
2023-06-08T08:35:30.688Z,7.68
2023-06-08T08:38:19.399Z,10.65
2023-06-08T08:41:12.829Z,12.45
2023-06-08T08:44:05.345Z,7.50
2023-06-08T08:46:56.130Z,9.38
2023-06-08T08:49:46.300Z,13.50
2023-06-08T08:52:38.397Z,7.60
2023-06-08T08:58:21.536Z,8.07
2023-06-08T09:01:11.894Z,7.78
2023-06-08T09:04:01.980Z,7.90
2023-06-08T09:06:52.746Z,7.95
2023-06-08T09:10:16.013Z,8.50
2023-06-08T09:13:04.956Z,10.98
2023-06-08T09:15:53.683Z,7.30
2023-06-08T09:18:42.485Z,8.70
2023-06-08T09:21:33.631Z,6.95
2023-06-08T09:25:23.297Z,13.20
2023-06-08T09:28:19.651Z,10.40
2023-06-08T09:31:12.724Z,12.77
2023-06-08T09:34:08.776Z,11.35
2023-06-08T09:37:08.773Z,8.18
2023-06-08T09:39:57.539Z,7.10
2023-06-08T09:42:51.926Z,7.43
2023-06-08T09:45:46.176Z,8.52
2023-06-08T09:48:34.870Z,8.18
2023-06-08T09:51:25.207Z,10.15
2023-06-08T09:54:17.195Z,7.65
2023-06-08T09:57:07.471Z,6.05
2023-06-08T10:00:09.310Z,6.57
2023-06-08T10:03:10.633Z,6.40
2023-06-08T10:06:00.727Z,8.70
2023-06-08T10:08:54.227Z,6.82
2023-06-08T10:11:44.924Z,5.63
2023-06-08T10:14:35.347Z,7.03
2023-06-08T10:17:25.726Z,7.47
2023-06-08T10:20:17.405Z,9.90
2023-06-08T10:23:07.705Z,5.90
2023-06-08T10:25:57.453Z,5.90
2023-06-08T10:29:20.768Z,7.78
2023-06-08T10:32:12.355Z,6.97
2023-06-08T10:35:03.982Z,9.02
2023-06-08T10:37:52.964Z,11.00
2023-06-08T10:40:45.993Z,8.40
2023-06-08T10:46:45.185Z,8.25
2023-06-08T10:49:35.662Z,6.35
2023-06-08T10:52:25.574Z,7.15
2023-06-08T10:55:17.359Z,6.68
2023-06-08T10:58:17.465Z,8.60
2023-06-08T11:01:08.782Z,10.48
2023-06-08T11:04:02.313Z,7.07
2023-06-08T11:06:53.678Z,8.38
2023-06-08T11:09:42.513Z,6.93
2023-06-08T11:12:31.167Z,9.38
2023-06-08T11:15:20.541Z,5.90
2023-06-08T11:18:10.439Z,5.43
2023-06-08T11:21:00.846Z,5.88
2023-06-08T11:23:49.629Z,7.07
2023-06-08T11:26:45.762Z,6.40
2023-06-08T11:29:41.068Z,6.75
2023-06-08T11:32:30.108Z,5.03
2023-06-08T11:35:20.575Z,8.27
2023-06-08T11:38:10.670Z,6.65
2023-06-08T11:40:59.791Z,5.78
2023-06-08T11:43:50.882Z,5.68
2023-06-08T11:46:39.619Z,6.63
2023-06-08T11:49:54.959Z,7.50
2023-06-08T11:52:44.958Z,7.45
2023-06-08T11:55:39.831Z,12.63
2023-06-08T11:58:30.577Z,6.05
2023-06-08T12:01:19.969Z,6.72
2023-06-08T12:04:15.977Z,7.18
2023-06-08T12:07:11.657Z,8.38
2023-06-08T12:10:01.944Z,5.80
2023-06-08T12:12:51.960Z,7.40
2023-06-08T12:15:44.029Z,8.48
2023-06-08T12:18:40.268Z,15.00
2023-06-08T12:21:28.983Z,27.75
2023-06-08T12:24:18.052Z,41.20
2023-06-08T12:27:08.272Z,39.90
2023-06-08T12:29:59.174Z,44.33
2023-06-08T12:32:47.954Z,41.83
2023-06-08T12:35:36.655Z,33.58
2023-06-08T12:38:25.950Z,28.25
2023-06-08T12:41:14.782Z,19.02
2023-06-08T12:44:03.473Z,21.17
2023-06-08T12:46:53.710Z,17.70
2023-06-08T12:49:42.879Z,14.75
2023-06-08T12:52:31.580Z,10.23
2023-06-08T12:55:20.940Z,11.70
2023-06-08T12:58:09.709Z,14.18
2023-06-08T13:00:58.428Z,14.77
2023-06-08T13:03:48.699Z,9.52
2023-06-08T13:06:38.049Z,15.77
2023-06-08T13:09:26.708Z,7.60
2023-06-08T13:12:15.449Z,10.85
2023-06-08T13:15:04.818Z,13.80
2023-06-08T13:17:53.579Z,11.82
2023-06-08T13:20:43.905Z,9.38
2023-06-08T13:23:33.029Z,8.15
2023-06-08T13:26:22.408Z,9.82
2023-06-08T13:29:11.070Z,8.30
2023-06-08T13:31:59.902Z,10.85
2023-06-08T13:34:48.888Z,6.35
2023-06-08T13:37:39.337Z,6.38
2023-06-08T13:40:33.354Z,7.07
2023-06-08T13:43:22.609Z,8.50
2023-06-08T13:46:11.355Z,6.55
2023-06-08T13:49:00.263Z,5.53
2023-06-08T13:51:49.437Z,8.73
2023-06-08T13:54:39.814Z,5.10
2023-06-08T13:57:28.574Z,5.60
2023-06-08T14:00:17.852Z,7.07
2023-06-08T14:03:06.606Z,5.70
2023-06-08T14:05:55.640Z,4.25
2023-06-08T14:08:44.437Z,6.07
2023-06-08T14:11:34.918Z,3.47
2023-06-08T14:14:23.538Z,3.63
2023-06-08T14:17:12.222Z,3.58
2023-06-08T14:20:01.006Z,5.68
2023-06-08T14:22:49.662Z,4.38
2023-06-08T14:25:38.323Z,5.35
2023-06-08T14:28:28.496Z,5.07
2023-06-08T14:31:17.305Z,3.88
2023-06-08T14:34:06.317Z,5.40
2023-06-08T14:36:54.934Z,3.47
2023-06-08T14:39:43.821Z,6.78
2023-06-08T14:42:32.839Z,4.03
2023-06-08T14:45:22.927Z,7.63
2023-06-08T14:48:12.487Z,4.40
2023-06-08T14:51:01.529Z,5.50
2023-06-08T14:53:50.687Z,5.20
2023-06-08T14:56:39.384Z,4.60
2023-06-08T14:59:28.597Z,4.18
2023-06-08T15:02:18.732Z,6.22
2023-06-08T15:05:08.729Z,5.45
2023-06-08T15:07:57.951Z,7.25
2023-06-08T15:10:46.647Z,6.13
2023-06-08T15:13:35.314Z,4.20
2023-06-08T15:16:24.102Z,6.88
2023-06-08T15:19:14.215Z,4.30
2023-06-08T15:22:02.895Z,6.90
2023-06-08T15:24:51.714Z,3.95
2023-06-08T15:27:40.377Z,9.32
2023-06-08T15:30:29.111Z,12.57
2023-06-08T15:33:17.889Z,10.60
2023-06-08T15:36:08.539Z,10.57
2023-06-08T15:38:57.206Z,5.97
2023-06-08T15:41:46.021Z,4.85
2023-06-08T15:44:34.672Z,6.68
2023-06-08T15:47:23.597Z,7.18
2023-06-08T15:50:12.481Z,7.38
2023-06-08T15:53:02.700Z,40.85
2023-06-08T15:55:52.540Z,6.55
2023-06-08T15:58:41.241Z,4.07
2023-06-08T16:01:32.322Z,4.45
2023-06-08T16:04:21.847Z,6.00
2023-06-08T16:07:10.499Z,3.47
2023-06-08T16:10:03.013Z,3.22
2023-06-08T16:12:52.695Z,5.05
2023-06-08T16:15:41.425Z,9.00
2023-06-08T16:18:30.442Z,5.82
2023-06-08T16:21:19.411Z,5.20
2023-06-08T16:24:22.270Z,4.30
2023-06-08T16:27:12.518Z,5.72
2023-06-08T16:30:01.361Z,5.45
2023-06-08T16:32:50.001Z,8.00
2023-06-08T16:35:38.662Z,5.22
2023-06-08T16:38:27.379Z,5.78
2023-06-08T16:41:16.161Z,8.32
2023-06-08T16:44:07.045Z,5.15
2023-06-08T16:46:56.376Z,9.05
2023-06-08T16:49:45.044Z,3.88
2023-06-08T16:52:33.719Z,7.43
2023-06-08T16:55:22.616Z,7.32
2023-06-08T16:58:11.261Z,6.55
2023-06-08T17:01:01.518Z,4.43
2023-06-08T17:03:50.330Z,4.93
2023-06-08T17:06:38.984Z,4.53
2023-06-08T17:09:27.637Z,3.50
2023-06-08T17:12:16.555Z,4.93
2023-06-08T17:15:08.762Z,4.25
2023-06-08T17:17:58.838Z,7.70
2023-06-08T17:20:47.548Z,4.55
2023-06-08T17:23:36.345Z,4.68
2023-06-08T17:26:25.423Z,6.68
2023-06-08T17:29:14.141Z,9.85
2023-06-08T17:32:03.285Z,4.50
2023-06-08T17:34:54.344Z,4.35
2023-06-08T17:37:43.071Z,6.00
2023-06-08T17:40:31.992Z,3.70
2023-06-08T17:43:20.731Z,5.97
2023-06-08T17:46:09.400Z,4.93
2023-06-08T17:48:59.680Z,9.05
2023-06-08T17:51:49.818Z,6.38
2023-06-08T17:54:38.615Z,5.82
2023-06-08T17:57:27.500Z,4.35
2023-06-08T18:00:17.433Z,5.38
2023-06-08T18:03:06.741Z,7.15
2023-06-08T18:05:55.566Z,3.90
2023-06-08T18:08:49.533Z,5.28
2023-06-08T18:11:38.690Z,5.07
2023-06-08T18:14:27.342Z,8.40
2023-06-08T18:17:16.246Z,4.95
2023-06-08T18:20:06.318Z,4.40
2023-06-08T18:22:55.169Z,3.35
2023-06-08T18:25:48.890Z,6.35
2023-06-08T18:28:37.698Z,4.10
2023-06-08T18:31:27.606Z,20.30
2023-06-08T18:34:17.273Z,6.15
2023-06-08T18:37:07.249Z,4.63
2023-06-08T18:40:00.327Z,5.93
2023-06-08T18:42:50.435Z,3.50
2023-06-08T18:45:41.782Z,5.75
2023-06-08T18:48:30.712Z,4.05
2023-06-08T18:51:20.051Z,4.75
2023-06-08T18:54:08.713Z,4.65
2023-06-08T18:56:57.479Z,4.35
2023-06-08T18:59:47.805Z,6.95
2023-06-08T19:02:36.633Z,4.78
2023-06-08T19:05:25.449Z,6.32
2023-06-08T19:08:14.202Z,6.28
2023-06-08T19:11:02.888Z,5.03
2023-06-08T19:13:51.730Z,4.20
2023-06-08T19:16:41.810Z,4.40
2023-06-08T19:19:30.528Z,8.00
2023-06-08T19:22:19.326Z,4.68
2023-06-08T19:25:08.819Z,5.28
2023-06-08T19:27:57.531Z,4.32
2023-06-08T19:30:46.213Z,5.05
2023-06-08T19:33:36.593Z,5.18
2023-06-08T19:36:25.868Z,4.72
2023-06-08T19:39:14.500Z,7.65
2023-06-08T19:42:04.158Z,7.63
2023-06-08T19:44:52.991Z,4.60
2023-06-08T19:47:42.138Z,5.47
2023-06-08T19:50:32.434Z,5.30
2023-06-08T19:53:21.051Z,4.88
2023-06-08T19:56:10.035Z,6.47
2023-06-08T19:58:59.812Z,10.48
2023-06-08T20:01:50.206Z,9.38
2023-06-08T20:04:38.961Z,6.25
2023-06-08T20:07:29.084Z,6.25
2023-06-08T20:10:17.747Z,6.53
2023-06-08T20:13:07.647Z,5.10
2023-06-08T20:15:56.649Z,6.07
2023-06-08T20:18:45.381Z,7.95
2023-06-08T20:21:34.229Z,5.95
2023-06-08T20:24:24.320Z,6.03
2023-06-08T20:27:14.846Z,5.15
2023-06-08T20:30:04.869Z,7.28
2023-06-08T20:32:53.650Z,12.18
2023-06-08T20:35:42.481Z,9.80
2023-06-08T20:38:34.225Z,8.82
2023-06-08T20:41:26.826Z,7.65
2023-06-08T20:44:15.763Z,12.02
2023-06-08T20:47:05.493Z,5.72
2023-06-08T20:49:54.119Z,10.05
2023-06-08T20:52:43.926Z,8.10
2023-06-08T20:55:32.555Z,12.82
2023-06-08T20:58:22.723Z,9.27
2023-06-08T21:01:11.454Z,8.10
2023-06-08T21:04:00.771Z,5.50
2023-06-08T21:06:51.002Z,8.32
2023-06-08T21:09:39.735Z,8.10
2023-06-08T21:12:30.700Z,8.40
2023-06-08T21:15:20.733Z,5.68
2023-06-08T21:18:09.528Z,5.00
2023-06-08T21:20:58.328Z,5.57
2023-06-08T21:23:47.221Z,6.40
2023-06-08T21:26:36.305Z,6.03
2023-06-08T21:29:25.557Z,6.13
2023-06-08T21:32:15.721Z,5.55
2023-06-08T21:35:04.864Z,6.97
2023-06-08T21:37:53.872Z,6.32
2023-06-08T21:40:42.503Z,6.07
2023-06-08T21:43:31.207Z,5.20
2023-06-08T21:46:19.877Z,11.00
2023-06-08T21:49:10.000Z,6.13
2023-06-08T21:51:58.956Z,6.45
2023-06-08T21:54:48.309Z,5.47
2023-06-08T21:57:37.243Z,6.22
2023-06-08T22:00:26.382Z,6.20
2023-06-08T22:03:15.177Z,6.18
2023-06-08T22:06:05.325Z,7.82
2023-06-08T22:08:54.029Z,7.57
2023-06-08T22:11:44.872Z,6.82
2023-06-08T22:14:33.569Z,8.18
2023-06-08T22:17:22.200Z,8.32
2023-06-08T22:20:12.757Z,6.25
2023-06-08T22:23:02.870Z,6.70
2023-06-08T22:25:51.851Z,7.18
2023-06-08T22:28:40.629Z,9.20
2023-06-08T22:31:29.550Z,11.70
2023-06-08T22:34:18.245Z,16.05
2023-06-08T22:37:08.056Z,16.75
2023-06-08T22:39:58.357Z,15.60
2023-06-08T22:42:47.024Z,12.77
2023-06-08T22:45:35.799Z,11.20
2023-06-08T22:48:24.416Z,16.17
2023-06-08T22:51:13.272Z,9.70
2023-06-08T22:54:02.522Z,9.77
2023-06-08T22:56:52.494Z,9.52
2023-06-08T22:59:41.615Z,7.93
2023-06-08T23:02:30.376Z,6.53
2023-06-08T23:05:19.799Z,5.93
2023-06-08T23:08:09.252Z,7.80
2023-06-08T23:10:58.036Z,7.50
2023-06-08T23:13:48.098Z,8.88
2023-06-08T23:16:38.185Z,8.45
2023-06-08T23:19:31.754Z,7.70
2023-06-08T23:22:21.197Z,9.10
2023-06-08T23:25:14.409Z,7.47
2023-06-08T23:28:03.188Z,5.80
2023-06-08T23:30:53.178Z,5.38
2023-06-08T23:33:41.887Z,6.28
2023-06-08T23:36:30.626Z,9.32
2023-06-08T23:39:19.410Z,8.95
2023-06-08T23:42:09.370Z,7.45
2023-06-08T23:45:00.310Z,5.65
2023-06-08T23:47:50.552Z,10.40
2023-06-08T23:50:39.251Z,6.25
2023-06-08T23:53:28.112Z,7.32
2023-06-08T23:56:16.819Z,5.60
2023-06-08T23:59:06.630Z,5.32
